Time;durP1;ratioP1;P1;durP2;ratioP2;P2;SDS_P1;SDS_P2;PMS_P1;PMS_P2;Temp;Humidity;BMP_temperature;BMP_pressure;BME280_temperature;BME280_humidity;BME280_pressure;Samples;Min_cycle;Max_cycle;Signal;HPM_P1;HPM_P2
2022/08/21 00:01:38;;;;;;;6.93;3.47;;;17.30;99.90;;;;;;5049261;28;20198;-69
2022/08/21 00:04:06;;;;;;;6.63;3.63;;;17.20;99.90;;;;;;5064701;28;20190;-67
2022/08/21 00:06:33;;;;;;;5.63;3.70;;;17.30;99.90;;;;;;5057834;28;20216;-69
2022/08/21 00:09:01;;;;;;;6.97;3.30;;;17.20;99.90;;;;;;5059157;28;20203;-68
2022/08/21 00:11:33;;;;;;;7.37;3.33;;;17.30;99.90;;;;;;5058034;28;20198;-68
2022/08/21 00:13:59;;;;;;;6.87;3.43;;;17.30;99.90;;;;;;5066170;28;20198;-66
2022/08/21 00:16:26;;;;;;;5.13;3.03;;;17.40;99.90;;;;;;5064411;28;20565;-68
2022/08/21 00:18:53;;;;;;;8.60;3.30;;;17.50;99.90;;;;;;5060687;28;20235;-68
2022/08/21 00:21:19;;;;;;;8.17;3.30;;;17.60;99.90;;;;;;5061611;28;20551;-68
2022/08/21 00:23:46;;;;;;;6.87;3.10;;;17.50;99.90;;;;;;5065169;28;20558;-68
2022/08/21 00:26:13;;;;;;;9.47;3.20;;;17.60;99.90;;;;;;5062866;28;20279;-68
2022/08/21 00:28:40;;;;;;;4.43;3.00;;;17.50;99.90;;;;;;5065455;28;20194;-68
2022/08/21 00:31:06;;;;;;;4.43;3.07;;;17.20;99.90;;;;;;5062723;28;20199;-67
2022/08/21 00:33:33;;;;;;;5.20;3.40;;;17.10;99.90;;;;;;5066005;28;20194;-68
2022/08/21 00:36:01;;;;;;;5.80;3.40;;;17.10;99.90;;;;;;5060082;28;20223;-68
2022/08/21 00:38:27;;;;;;;7.67;3.30;;;17.00;99.90;;;;;;5065411;28;20563;-67
2022/08/21 00:40:57;;;;;;;5.83;3.57;;;17.30;99.90;;;;;;5065622;28;20217;-67
2022/08/21 00:43:44;;;;;;;6.30;3.10;;;17.40;99.90;;;;;;5062373;28;20367;-68
2022/08/21 00:46:11;;;;;;;6.67;3.10;;;17.30;99.90;;;;;;5061812;28;20593;-68
2022/08/21 00:48:38;;;;;;;5.73;3.40;;;17.30;99.90;;;;;;5065478;28;20203;-68
2022/08/21 00:51:13;;;;;;;4.87;3.10;;;17.30;99.90;;;;;;5065708;28;20244;-68
2022/08/21 00:53:43;;;;;;;5.50;3.03;;;17.20;99.90;;;;;;5059277;28;20579;-68
2022/08/21 00:56:16;;;;;;;9.93;3.47;;;17.10;99.90;;;;;;5068597;28;20214;-68
2022/08/21 00:58:43;;;;;;;9.57;3.93;;;17.20;99.90;;;;;;5067663;28;20211;-68
2022/08/21 01:01:09;;;;;;;6.43;3.73;;;17.20;99.90;;;;;;5065742;28;20190;-68
2022/08/21 01:03:36;;;;;;;6.53;3.50;;;17.10;99.90;;;;;;5051074;28;20575;-68
2022/08/21 01:06:09;;;;;;;6.33;3.30;;;17.10;99.90;;;;;;5068353;28;20253;-68
2022/08/21 01:08:36;;;;;;;6.40;3.07;;;17.00;99.90;;;;;;5060631;28;20723;-68
2022/08/21 01:11:12;;;;;;;6.70;3.30;;;16.90;99.90;;;;;;5045237;28;20195;-68
2022/08/21 01:13:44;;;;;;;7.20;3.13;;;16.80;99.90;;;;;;5068474;28;20201;-68
2022/08/21 01:16:13;;;;;;;7.17;3.40;;;16.70;99.90;;;;;;5050532;28;20689;-68
2022/08/21 01:18:40;;;;;;;8.17;3.40;;;17.00;99.90;;;;;;5061184;28;20222;-67
2022/08/21 01:21:15;;;;;;;9.77;3.10;;;17.00;99.90;;;;;;5068363;28;20190;-66
2022/08/21 01:23:44;;;;;;;4.83;3.10;;;16.90;99.90;;;;;;5060813;28;20223;-68
2022/08/21 01:26:13;;;;;;;5.73;2.90;;;16.90;99.90;;;;;;5065567;28;20225;-67
2022/08/21 01:29:00;;;;;;;6.57;3.20;;;16.90;99.90;;;;;;5068319;28;20240;-68
2022/08/21 01:31:28;;;;;;;6.37;3.10;;;16.80;99.90;;;;;;5068004;28;20263;-68
2022/08/21 01:33:55;;;;;;;8.27;3.37;;;16.80;99.90;;;;;;5065151;28;20198;-68
2022/08/21 01:36:23;;;;;;;6.47;3.10;;;16.70;99.90;;;;;;5060769;28;20292;-67
2022/08/21 01:38:50;;;;;;;5.33;3.33;;;16.80;99.90;;;;;;5067802;28;20648;-68
2022/08/21 01:41:17;;;;;;;6.27;3.10;;;16.80;99.90;;;;;;5067816;28;20198;-68
2022/08/21 01:43:44;;;;;;;7.77;3.40;;;16.70;99.90;;;;;;5048139;28;20198;-68
2022/08/21 01:46:12;;;;;;;6.30;3.37;;;16.60;99.90;;;;;;5063984;28;20297;-67
2022/08/21 01:48:39;;;;;;;8.17;3.57;;;16.60;99.90;;;;;;5067216;28;20194;-67
2022/08/21 01:51:06;;;;;;;7.43;3.57;;;16.60;99.90;;;;;;5064082;28;20281;-68
2022/08/21 01:53:36;;;;;;;7.27;3.80;;;16.50;99.90;;;;;;5065436;28;20204;-67
2022/08/21 01:56:06;;;;;;;7.80;3.20;;;16.50;99.90;;;;;;5062793;28;20229;-67
2022/08/21 01:58:39;;;;;;;5.77;3.00;;;16.60;99.90;;;;;;5059366;28;20218;-68
2022/08/21 02:01:05;;;;;;;8.13;3.20;;;16.50;99.90;;;;;;5059254;28;20199;-68
2022/08/21 02:03:32;;;;;;;6.73;3.13;;;16.40;99.90;;;;;;5038010;28;20198;-67
2022/08/21 02:06:03;;;;;;;8.30;3.40;;;16.40;99.90;;;;;;5053083;28;20211;-67
2022/08/21 02:08:29;;;;;;;6.97;3.07;;;16.40;99.90;;;;;;5052395;28;20218;-68
2022/08/21 02:10:56;;;;;;;4.83;3.10;;;16.30;99.90;;;;;;5052262;28;20582;-68
2022/08/21 02:13:23;;;;;;;8.77;3.37;;;16.20;99.90;;;;;;5052116;28;20199;-68
2022/08/21 02:15:49;;;;;;;10.73;3.30;;;16.30;99.90;;;;;;5051652;28;20231;-68
2022/08/21 02:18:16;;;;;;;6.40;3.23;;;16.30;99.90;;;;;;5053929;28;20218;-66
2022/08/21 02:20:46;;;;;;;6.67;3.27;;;16.30;99.90;;;;;;5051956;28;20277;-67
2022/08/21 02:23:14;;;;;;;7.27;3.43;;;16.30;99.90;;;;;;5051922;28;20630;-68
2022/08/21 02:25:41;;;;;;;6.80;3.30;;;16.30;99.90;;;;;;5052279;28;20210;-67
2022/08/21 02:28:13;;;;;;;6.70;3.43;;;16.10;99.90;;;;;;5052271;28;20264;-68
2022/08/21 02:30:44;;;;;;;6.13;3.13;;;16.00;99.90;;;;;;5051656;28;20244;-68
2022/08/21 02:33:12;;;;;;;5.37;3.20;;;15.90;99.90;;;;;;5062214;28;20195;-68
2022/08/21 02:35:41;;;;;;;8.37;3.17;;;15.80;99.90;;;;;;5060412;28;20218;-68
2022/08/21 02:38:11;;;;;;;8.20;3.37;;;15.80;99.90;;;;;;5051509;28;20218;-67
2022/08/21 02:40:40;;;;;;;7.13;3.67;;;15.90;99.90;;;;;;5051224;28;20283;-68
2022/08/21 02:43:15;;;;;;;8.07;3.33;;;16.10;99.90;;;;;;5051163;28;20199;-68
2022/08/21 02:45:43;;;;;;;7.23;3.90;;;16.20;99.90;;;;;;5050613;28;20213;-67
2022/08/21 02:48:13;;;;;;;5.77;3.10;;;16.10;99.90;;;;;;5051420;28;20233;-66
2022/08/21 02:50:50;;;;;;;7.40;3.80;;;16.00;99.90;;;;;;5050899;28;20565;-66
2022/08/21 02:53:17;;;;;;;5.77;3.50;;;15.90;99.90;;;;;;5050967;28;20268;-68
2022/08/21 02:55:46;;;;;;;6.60;4.00;;;15.90;99.90;;;;;;5050882;28;20776;-67
2022/08/21 02:58:15;;;;;;;6.03;3.60;;;15.80;99.90;;;;;;5051059;28;20215;-68
2022/08/21 03:00:43;;;;;;;5.67;3.70;;;15.80;99.90;;;;;;5050725;28;20676;-68
2022/08/21 03:03:11;;;;;;;7.97;4.47;;;16.00;99.90;;;;;;5050916;28;20194;-68
2022/08/21 03:05:38;;;;;;;5.43;3.43;;;16.10;99.90;;;;;;5032817;28;20215;-65
2022/08/21 03:08:10;;;;;;;8.77;3.97;;;16.00;99.90;;;;;;5050766;28;20245;-68
2022/08/21 03:10:40;;;;;;;7.37;3.80;;;15.90;99.90;;;;;;5050921;28;20281;-68
2022/08/21 03:13:07;;;;;;;8.93;4.00;;;15.90;99.90;;;;;;5050885;28;20195;-68
2022/08/21 03:15:34;;;;;;;8.77;3.83;;;15.90;99.90;;;;;;5050588;28;20762;-67
2022/08/21 03:18:03;;;;;;;6.27;3.50;;;15.90;99.90;;;;;;5050075;28;20198;-66
2022/08/21 03:20:32;;;;;;;7.47;3.67;;;15.90;99.90;;;;;;5050635;28;20256;-67
2022/08/21 03:22:59;;;;;;;5.13;3.73;;;15.90;99.90;;;;;;5050922;28;20202;-68
2022/08/21 03:25:28;;;;;;;7.93;4.20;;;16.00;99.90;;;;;;5050747;28;20211;-67
2022/08/21 03:28:09;;;;;;;5.63;4.00;;;15.90;99.90;;;;;;5050434;28;20569;-68
2022/08/21 03:30:41;;;;;;;9.33;3.80;;;15.90;99.90;;;;;;5050512;28;20281;-68
2022/08/21 03:33:07;;;;;;;8.33;3.90;;;15.70;99.90;;;;;;5050536;28;20714;-68
2022/08/21 03:35:37;;;;;;;13.87;4.13;;;15.80;99.90;;;;;;5050514;28;20210;-65
2022/08/21 03:38:04;;;;;;;8.57;4.27;;;15.80;99.90;;;;;;5050741;28;20191;-67
2022/08/21 03:40:31;;;;;;;7.80;4.00;;;15.80;99.90;;;;;;5058229;28;20198;-68
2022/08/21 03:42:58;;;;;;;8.73;4.43;;;15.80;99.90;;;;;;5071014;28;20225;-68
2022/08/21 03:45:25;;;;;;;7.27;3.83;;;15.90;99.90;;;;;;5063777;28;20229;-68
2022/08/21 03:47:55;;;;;;;10.50;4.00;;;15.80;99.90;;;;;;5050270;28;20191;-68
2022/08/21 03:50:24;;;;;;;8.40;3.93;;;15.70;99.90;;;;;;5050973;28;20606;-67
2022/08/21 03:52:50;;;;;;;7.87;4.27;;;15.60;99.90;;;;;;5050256;28;20225;-68
2022/08/21 03:55:17;;;;;;;7.83;4.27;;;15.50;99.90;;;;;;5051416;28;20199;-68
2022/08/21 03:57:44;;;;;;;8.07;4.20;;;15.40;99.90;;;;;;5049867;28;20260;-67
2022/08/21 04:00:13;;;;;;;8.10;4.30;;;15.50;99.90;;;;;;5049874;28;20717;-68
2022/08/21 04:02:40;;;;;;;6.37;4.37;;;15.50;99.90;;;;;;5050215;28;20190;-68
2022/08/21 04:05:08;;;;;;;7.73;4.30;;;15.40;99.90;;;;;;5049761;28;20671;-67
2022/08/21 04:07:35;;;;;;;8.33;4.10;;;15.50;99.90;;;;;;5049755;28;20437;-68
2022/08/21 04:10:03;;;;;;;7.37;4.30;;;15.50;99.90;;;;;;5050002;28;20674;-68
2022/08/21 04:12:30;;;;;;;6.13;4.60;;;15.60;99.90;;;;;;5049910;28;20199;-68
2022/08/21 04:14:56;;;;;;;6.80;4.20;;;15.60;99.90;;;;;;5050272;28;20569;-68
2022/08/21 04:17:23;;;;;;;9.20;4.57;;;15.60;99.90;;;;;;5049492;28;20730;-68
2022/08/21 04:19:49;;;;;;;7.00;4.23;;;15.60;99.90;;;;;;5050129;28;20229;-68
2022/08/21 04:22:19;;;;;;;6.97;4.20;;;15.70;99.90;;;;;;5049786;28;20199;-67
2022/08/21 04:24:46;;;;;;;7.40;4.10;;;15.80;99.90;;;;;;5049972;28;20589;-68
2022/08/21 04:27:12;;;;;;;8.40;4.40;;;15.80;99.90;;;;;;5049590;28;20222;-66
2022/08/21 04:29:39;;;;;;;8.83;4.10;;;15.70;99.90;;;;;;5052936;28;20946;-69
2022/08/21 04:32:06;;;;;;;7.87;4.20;;;15.60;99.90;;;;;;5053854;28;20202;-68
2022/08/21 04:34:32;;;;;;;5.40;4.07;;;15.50;99.90;;;;;;5064271;28;20197;-68
2022/08/21 04:36:59;;;;;;;8.70;4.43;;;15.40;99.90;;;;;;5073586;28;20213;-67
2022/08/21 04:39:26;;;;;;;6.57;4.13;;;15.40;99.90;;;;;;5073396;28;20213;-67
2022/08/21 04:41:55;;;;;;;8.13;4.20;;;15.50;99.90;;;;;;5059248;28;20199;-68
2022/08/21 04:44:22;;;;;;;11.63;4.57;;;15.40;99.90;;;;;;5053442;28;20604;-67
2022/08/21 04:46:48;;;;;;;10.83;4.63;;;15.40;99.90;;;;;;5054377;28;20218;-68
2022/08/21 04:49:15;;;;;;;6.67;4.03;;;15.50;99.90;;;;;;5053494;28;20210;-67
2022/08/21 04:51:42;;;;;;;6.80;4.33;;;15.50;99.90;;;;;;5053687;28;20285;-68
2022/08/21 04:54:15;;;;;;;8.23;3.90;;;15.60;99.90;;;;;;5054102;28;20191;-67
2022/08/21 04:56:46;;;;;;;8.53;4.17;;;15.70;99.90;;;;;;5053239;28;20271;-68
2022/08/21 04:59:20;;;;;;;7.50;4.30;;;15.70;99.90;;;;;;5053518;28;20721;-67
2022/08/21 05:01:48;;;;;;;6.83;4.10;;;15.60;99.90;;;;;;5053664;28;20198;-67
2022/08/21 05:04:18;;;;;;;6.87;3.77;;;15.70;99.90;;;;;;5053531;28;20273;-67
2022/08/21 05:06:47;;;;;;;9.93;4.27;;;15.70;99.90;;;;;;5052386;28;20264;-68
2022/08/21 05:09:16;;;;;;;8.67;3.73;;;15.70;99.90;;;;;;5053491;28;20199;-67
2022/08/21 05:11:43;;;;;;;8.40;3.97;;;15.80;99.90;;;;;;5053107;28;20624;-68
2022/08/21 05:14:11;;;;;;;6.73;4.03;;;15.80;99.90;;;;;;5052907;28;20626;-67
2022/08/21 05:16:38;;;;;;;6.03;4.07;;;15.90;99.90;;;;;;5052875;28;20226;-67
2022/08/21 05:19:06;;;;;;;7.40;3.60;;;15.80;99.90;;;;;;5053088;28;20206;-67
2022/08/21 05:21:34;;;;;;;6.67;3.60;;;15.90;99.90;;;;;;5052551;28;20642;-67
2022/08/21 05:24:01;;;;;;;9.00;4.27;;;15.90;99.90;;;;;;5052775;28;20603;-68
2022/08/21 05:26:28;;;;;;;10.27;3.87;;;16.00;99.90;;;;;;5052822;28;20227;-68
2022/08/21 05:28:55;;;;;;;10.10;4.20;;;16.00;99.90;;;;;;5052646;28;20682;-68
2022/08/21 05:31:22;;;;;;;9.90;4.17;;;16.20;99.90;;;;;;5052630;28;20646;-68
2022/08/21 05:33:49;;;;;;;11.30;3.90;;;16.30;99.90;;;;;;5052695;28;20199;-68
2022/08/21 05:36:18;;;;;;;7.50;3.80;;;16.30;99.90;;;;;;5052468;28;20219;-68
2022/08/21 05:38:45;;;;;;;7.37;4.17;;;16.30;99.90;;;;;;5052143;28;20222;-68
2022/08/21 05:41:12;;;;;;;9.23;4.30;;;16.40;99.90;;;;;;5057283;28;20194;-66
2022/08/21 05:43:39;;;;;;;10.40;4.00;;;16.40;99.90;;;;;;5052205;28;20706;-68
2022/08/21 05:46:07;;;;;;;10.73;4.53;;;16.40;99.90;;;;;;5052279;28;20215;-68
2022/08/21 05:48:35;;;;;;;7.43;3.90;;;16.50;99.90;;;;;;5053577;28;20628;-67
2022/08/21 05:51:08;;;;;;;7.97;4.20;;;16.50;99.90;;;;;;5052614;28;20202;-68
2022/08/21 05:53:35;;;;;;;6.13;4.27;;;16.70;99.90;;;;;;5052557;28;20264;-67
2022/08/21 05:56:03;;;;;;;8.50;4.20;;;16.60;99.90;;;;;;5052897;28;20219;-67
2022/08/21 05:58:32;;;;;;;6.20;3.93;;;16.70;99.90;;;;;;5051954;28;20195;-68
2022/08/21 06:01:00;;;;;;;8.77;4.63;;;16.80;99.90;;;;;;5052095;28;20218;-67
2022/08/21 06:03:30;;;;;;;6.70;3.53;;;16.90;99.90;;;;;;5034431;28;20663;-68
2022/08/21 06:05:57;;;;;;;7.93;4.40;;;17.00;99.90;;;;;;5034142;28;20218;-66
2022/08/21 06:08:24;;;;;;;6.03;3.73;;;17.10;99.90;;;;;;5052583;28;20195;-68
2022/08/21 06:10:52;;;;;;;8.20;4.17;;;17.20;99.90;;;;;;5052668;28;20209;-69
2022/08/21 06:13:20;;;;;;;9.77;4.23;;;17.40;99.90;;;;;;5052684;28;20233;-68
2022/08/21 06:15:47;;;;;;;7.37;3.50;;;17.30;99.90;;;;;;5052312;28;20690;-68
2022/08/21 06:18:15;;;;;;;5.97;4.00;;;17.40;99.90;;;;;;5051998;28;20211;-67
2022/08/21 06:20:42;;;;;;;7.30;4.57;;;17.50;99.90;;;;;;5052274;28;20233;-68
2022/08/21 06:23:09;;;;;;;8.53;4.47;;;17.50;99.90;;;;;;5052048;28;20191;-67
2022/08/21 06:25:35;;;;;;;11.30;4.37;;;17.70;99.90;;;;;;5033799;28;20226;-67
2022/08/21 06:28:05;;;;;;;8.77;4.73;;;17.80;99.90;;;;;;5052451;28;20191;-67
2022/08/21 06:30:32;;;;;;;8.30;4.50;;;17.70;99.90;;;;;;5051890;28;20194;-68
2022/08/21 06:32:59;;;;;;;8.07;4.33;;;17.70;99.90;;;;;;5051804;28;20202;-68
2022/08/21 06:35:28;;;;;;;7.57;5.03;;;17.80;99.90;;;;;;5051629;28;21700;-67
2022/08/21 06:37:56;;;;;;;7.73;4.57;;;17.80;99.90;;;;;;5051567;28;20195;-69
2022/08/21 06:40:24;;;;;;;8.00;4.67;;;17.90;99.90;;;;;;5051601;28;20215;-68
2022/08/21 06:42:50;;;;;;;6.50;4.30;;;18.10;99.90;;;;;;5052073;28;20201;-68
2022/08/21 06:45:17;;;;;;;7.50;4.97;;;18.10;99.90;;;;;;5055031;28;20205;-68
2022/08/21 06:47:44;;;;;;;7.30;4.40;;;18.20;99.90;;;;;;5051202;28;20199;-68
2022/08/21 06:50:11;;;;;;;7.63;4.73;;;18.30;99.90;;;;;;5051378;28;20667;-68
2022/08/21 06:52:39;;;;;;;9.97;4.47;;;18.40;99.90;;;;;;5050213;28;20249;-68
2022/08/21 06:55:07;;;;;;;7.13;4.23;;;18.40;99.90;;;;;;5051336;28;20195;-68
2022/08/21 06:57:34;;;;;;;8.00;4.60;;;18.50;99.90;;;;;;5051451;28;20248;-69
2022/08/21 07:00:04;;;;;;;7.63;4.80;;;18.60;99.90;;;;;;5051429;28;20698;-69
2022/08/21 07:02:33;;;;;;;7.60;4.30;;;18.80;99.90;;;;;;5051402;28;20211;-69
2022/08/21 07:05:00;;;;;;;9.67;4.40;;;18.90;99.90;;;;;;5051840;28;20214;-68
2022/08/21 07:07:26;;;;;;;5.97;4.03;;;19.00;99.90;;;;;;5051125;28;20235;-69
2022/08/21 07:09:53;;;;;;;7.87;4.17;;;19.30;99.90;;;;;;5051933;28;20252;-69
2022/08/21 07:12:19;;;;;;;7.67;4.03;;;19.60;99.90;;;;;;5052177;28;20199;-69
2022/08/21 07:14:46;;;;;;;7.27;4.07;;;19.80;99.90;;;;;;5052687;28;20457;-69
2022/08/21 07:17:13;;;;;;;8.90;3.60;;;20.10;99.90;;;;;;5053640;28;20280;-69
2022/08/21 07:19:39;;;;;;;6.87;3.90;;;20.50;99.90;;;;;;5052678;28;20210;-69
2022/08/21 07:22:07;;;;;;;7.40;3.80;;;21.00;99.90;;;;;;5052108;28;20248;-69
2022/08/21 07:24:33;;;;;;;9.13;3.65;;;21.40;99.90;;;;;;5051435;28;20690;-69
2022/08/21 07:27:00;;;;;;;8.02;3.70;;;21.80;99.90;;;;;;5052339;28;20240;-68
2022/08/21 07:29:27;;;;;;;6.90;3.97;;;22.10;99.90;;;;;;5052047;28;20198;-68
2022/08/21 07:31:53;;;;;;;7.03;4.07;;;22.30;99.90;;;;;;5051064;28;20203;-68
2022/08/21 07:34:20;;;;;;;6.20;3.63;;;22.50;99.90;;;;;;5051358;28;20202;-68
2022/08/21 07:36:47;;;;;;;6.95;3.38;;;22.60;99.90;;;;;;5050215;28;20218;-68
2022/08/21 07:39:14;;;;;;;8.88;4.45;;;22.70;99.90;;;;;;5050980;28;20286;-70
2022/08/21 07:41:41;;;;;;;7.38;3.80;;;22.80;99.90;;;;;;5033074;28;20690;-68
2022/08/21 07:44:08;;;;;;;11.23;4.40;;;22.90;99.90;;;;;;5050711;28;20651;-68
2022/08/21 07:46:38;;;;;;;9.63;4.32;;;23.10;99.90;;;;;;5050395;28;20219;-68
2022/08/21 07:49:04;;;;;;;8.70;4.07;;;23.20;99.90;;;;;;5050602;28;20195;-69
2022/08/21 07:51:33;;;;;;;6.75;3.75;;;23.30;99.90;;;;;;5050729;28;20214;-68
2022/08/21 07:54:00;;;;;;;8.50;3.80;;;23.30;99.90;;;;;;5050301;28;20694;-69
2022/08/21 07:56:27;;;;;;;5.22;3.95;;;23.30;99.90;;;;;;5048311;28;20236;-69
2022/08/21 07:58:55;;;;;;;9.30;4.18;;;23.30;99.90;;;;;;5070121;28;20247;-68
2022/08/21 08:01:22;;;;;;;10.73;5.20;;;23.50;99.90;;;;;;5070175;28;20226;-68
2022/08/21 08:03:48;;;;;;;8.57;4.65;;;23.50;99.90;;;;;;5056598;28;20191;-68
2022/08/21 08:06:18;;;;;;;8.43;4.93;;;23.50;99.90;;;;;;5049989;28;20215;-68
2022/08/21 08:08:46;;;;;;;9.73;4.47;;;23.50;99.90;;;;;;5050118;28;20195;-69
2022/08/21 08:11:16;;;;;;;9.63;4.50;;;23.60;99.90;;;;;;5050060;28;20191;-69
2022/08/21 08:13:47;;;;;;;8.18;4.90;;;23.80;99.90;;;;;;5049941;28;20205;-68
2022/08/21 08:16:14;;;;;;;11.60;5.45;;;23.90;99.90;;;;;;5032431;28;20227;-69
2022/08/21 08:18:41;;;;;;;12.57;4.97;;;24.00;99.90;;;;;;5032715;28;20202;-69
2022/08/21 08:21:10;;;;;;;10.23;4.75;;;24.00;99.90;;;;;;5050205;28;20225;-68
2022/08/21 08:23:36;;;;;;;11.35;5.10;;;24.20;99.90;;;;;;5067099;28;20593;-69
2022/08/21 08:26:03;;;;;;;9.65;5.18;;;24.30;99.90;;;;;;5069944;28;20218;-69
2022/08/21 08:28:31;;;;;;;9.38;5.50;;;24.40;99.90;;;;;;5069760;28;20275;-68
2022/08/21 08:30:59;;;;;;;9.27;5.05;;;24.40;99.90;;;;;;5063048;28;20574;-69
2022/08/21 08:33:27;;;;;;;7.30;5.25;;;24.60;99.90;;;;;;5066269;28;20202;-68
2022/08/21 08:35:54;;;;;;;11.98;5.70;;;24.80;99.90;;;;;;5066682;28;20310;-69
2022/08/21 08:38:23;;;;;;;9.85;5.47;;;24.80;99.90;;;;;;5049909;28;20199;-68
2022/08/21 08:40:56;;;;;;;8.68;5.32;;;24.90;99.90;;;;;;5049611;28;20698;-69
2022/08/21 08:43:22;;;;;;;11.38;6.18;;;25.10;99.90;;;;;;5050038;28;20203;-69
2022/08/21 08:45:53;;;;;;;10.13;5.80;;;25.20;99.90;;;;;;5049682;28;20219;-69
2022/08/21 08:48:42;;;;;;;9.68;5.95;;;25.30;99.90;;;;;;5050038;28;20199;-69
2022/08/21 08:51:28;;;;;;;10.55;6.00;;;25.50;99.90;;;;;;5049875;28;20245;-68
2022/08/21 08:54:02;;;;;;;12.82;5.70;;;25.40;99.90;;;;;;5049785;28;20620;-68
2022/08/21 08:56:32;;;;;;;8.95;5.07;;;25.50;99.90;;;;;;5049888;28;20218;-68
2022/08/21 08:59:07;;;;;;;10.13;4.90;;;25.60;99.90;;;;;;5034972;28;20190;-69
2022/08/21 09:01:34;;;;;;;8.75;3.90;;;25.80;99.90;;;;;;5057698;28;20221;-69
2022/08/21 09:04:05;;;;;;;8.50;3.70;;;26.00;99.90;;;;;;5032647;28;20194;-69
2022/08/21 09:06:49;;;;;;;8.10;3.50;;;26.10;99.90;;;;;;5049386;28;20713;-67
2022/08/21 09:10:02;;;;;;;6.57;3.17;;;26.10;99.90;;;;;;5049614;28;20595;-69
2022/08/21 09:12:36;;;;;;;6.45;3.28;;;25.90;99.90;;;;;;4976705;28;20763;-69
2022/08/21 09:15:16;;;;;;;6.30;2.83;;;25.90;99.90;;;;;;5051596;28;20199;-69
2022/08/21 09:18:04;;;;;;;6.68;2.90;;;26.00;99.90;;;;;;5052822;28;20203;-68
2022/08/21 09:20:45;;;;;;;9.15;3.80;;;26.20;99.90;;;;;;5052987;28;20219;-69
2022/08/21 09:23:37;;;;;;;7.88;3.25;;;26.30;99.90;;;;;;5053023;28;20221;-68
2022/08/21 09:26:16;;;;;;;6.75;3.03;;;26.40;99.90;;;;;;5020498;28;20206;-69
2022/08/21 09:28:43;;;;;;;5.95;3.10;;;26.60;99.90;;;;;;5073103;28;20471;-69
2022/08/21 09:31:26;;;;;;;6.85;3.15;;;26.70;99.90;;;;;;5073592;28;20194;-69
2022/08/21 09:34:26;;;;;;;6.60;3.05;;;26.80;99.90;;;;;;5059485;28;20198;-68
2022/08/21 09:36:53;;;;;;;9.70;3.50;;;26.90;99.90;;;;;;5052302;28;20230;-69
2022/08/21 09:39:28;;;;;;;9.90;3.10;;;26.90;99.90;;;;;;5052953;28;20203;-69
2022/08/21 09:41:57;;;;;;;5.57;3.25;;;26.90;99.90;;;;;;5052688;28;20222;-69
2022/08/21 09:44:30;;;;;;;6.78;3.42;;;26.90;99.90;;;;;;5052887;28;20202;-69
2022/08/21 09:46:56;;;;;;;7.10;3.28;;;26.80;99.90;;;;;;5052539;28;20290;-69
2022/08/21 09:49:31;;;;;;;7.03;3.10;;;26.80;99.90;;;;;;5052857;28;20321;-69
2022/08/21 09:51:58;;;;;;;7.30;3.40;;;27.00;99.90;;;;;;5052207;28;20199;-68
2022/08/21 09:54:36;;;;;;;10.80;3.85;;;27.20;99.90;;;;;;5052580;28;20470;-69
2022/08/21 09:57:39;;;;;;;4.90;3.20;;;27.30;99.90;;;;;;5052334;28;20256;-68
2022/08/21 10:00:19;;;;;;;5.78;2.92;;;27.50;99.90;;;;;;5052057;28;20233;-69
2022/08/21 10:02:46;;;;;;;8.20;3.10;;;27.70;99.90;;;;;;5052408;28;20205;-69
2022/08/21 10:05:19;;;;;;;4.20;2.75;;;27.80;99.90;;;;;;5052772;28;20198;-69
2022/08/21 10:07:46;;;;;;;4.72;3.05;;;27.70;99.90;;;;;;5052060;28;20253;-69
2022/08/21 10:10:20;;;;;;;8.90;4.90;;;27.60;99.90;;;;;;5064846;28;20686;-69
2022/08/21 10:13:19;;;;;;;7.32;4.28;;;27.60;99.90;;;;;;5072004;28;20201;-69
2022/08/21 10:16:04;;;;;;;5.63;3.17;;;27.90;99.90;;;;;;5071747;28;20221;-69
2022/08/21 10:19:14;;;;;;;4.75;2.92;;;28.00;99.90;;;;;;5052349;28;20628;-69
2022/08/21 10:21:56;;;;;;;6.07;3.10;;;28.30;99.90;;;;;;5060217;28;20720;-69
2022/08/21 10:24:31;;;;;;;3.47;2.60;;;28.50;99.90;;;;;;5072086;28;20205;-69
2022/08/21 10:27:24;;;;;;;5.93;3.00;;;28.50;99.90;;;;;;5067307;28;20269;-69
2022/08/21 10:30:30;;;;;;;10.18;4.90;;;28.40;99.90;;;;;;5051996;28;20199;-68
2022/08/21 10:33:32;;;;;;;7.65;3.40;;;28.20;99.90;;;;;;5050000;28;20205;-69
2022/08/21 10:36:09;;;;;;;8.65;3.00;;;28.30;99.90;;;;;;5051193;28;20493;-69
2022/08/21 10:38:44;;;;;;;4.63;2.90;;;28.50;99.90;;;;;;5052143;28;20225;-69
2022/08/21 10:41:57;;;;;;;7.80;2.85;;;28.40;99.90;;;;;;5051992;28;20219;-69
2022/08/21 10:44:48;;;;;;;7.47;3.10;;;28.30;99.90;;;;;;5056602;28;20207;-69
2022/08/21 10:47:46;;;;;;;4.00;2.40;;;28.10;99.90;;;;;;5051822;28;20219;-69
2022/08/21 10:50:27;;;;;;;5.35;2.80;;;27.90;99.90;;;;;;5051895;28;20198;-67
2022/08/21 10:53:06;;;;;;;6.15;2.70;;;28.00;99.90;;;;;;5036001;28;20315;-69
2022/08/21 10:55:59;;;;;;;6.47;2.85;;;28.00;99.90;;;;;;5051349;28;20218;-69
2022/08/21 10:58:31;;;;;;;5.70;2.78;;;28.00;99.90;;;;;;5047855;28;20705;-69
2022/08/21 11:01:31;;;;;;;5.85;2.30;;;28.30;99.90;;;;;;5050669;28;20219;-69
2022/08/21 11:04:30;;;;;;;5.80;2.78;;;28.60;99.90;;;;;;5040007;28;20191;-68
2022/08/21 11:07:41;;;;;;;4.88;2.55;;;28.70;99.90;;;;;;5050834;28;20215;-69
2022/08/21 11:10:20;;;;;;;5.40;2.67;;;28.80;99.90;;;;;;5030978;28;20409;-69
2022/08/21 11:13:00;;;;;;;4.43;2.47;;;28.90;99.90;;;;;;5051270;28;20627;-69
2022/08/21 11:15:44;;;;;;;5.18;2.67;;;28.80;99.70;;;;;;5050706;28;20225;-69
2022/08/21 11:18:27;;;;;;;6.90;2.78;;;28.90;99.90;;;;;;5050845;28;20260;-69
2022/08/21 11:21:19;;;;;;;4.40;2.50;;;29.10;99.70;;;;;;5032797;28;20222;-69
2022/08/21 11:23:49;;;;;;;5.72;2.58;;;29.00;99.50;;;;;;5050728;28;20199;-69
2022/08/21 11:26:24;;;;;;;6.47;2.55;;;28.80;99.90;;;;;;5050670;28;20215;-69
2022/08/21 11:29:09;;;;;;;3.97;2.45;;;29.00;99.90;;;;;;5050758;28;20248;-69
2022/08/21 11:31:52;;;;;;;3.90;2.40;;;29.20;99.70;;;;;;5050552;28;20290;-69
2022/08/21 11:34:37;;;;;;;5.18;2.72;;;29.40;99.30;;;;;;5050736;28;20198;-69
2022/08/21 11:37:26;;;;;;;5.65;2.63;;;29.40;98.70;;;;;;5050211;28;20214;-70
2022/08/21 11:40:04;;;;;;;4.32;2.70;;;29.20;98.70;;;;;;5050654;28;20280;-69
2022/08/21 11:42:40;;;;;;;5.03;2.45;;;29.20;98.70;;;;;;5050551;28;20233;-70
2022/08/21 11:45:27;;;;;;;5.05;2.60;;;28.90;99.20;;;;;;5050443;28;20198;-69
2022/08/21 11:48:26;;;;;;;4.65;2.72;;;29.00;98.60;;;;;;5050114;28;20647;-68
2022/08/21 11:50:54;;;;;;;4.10;2.50;;;28.50;99.30;;;;;;5050213;28;20203;-68
2022/08/21 11:53:24;;;;;;;3.67;2.20;;;28.40;99.10;;;;;;5050688;28;20210;-69
2022/08/21 11:56:01;;;;;;;6.00;2.40;;;28.50;99.30;;;;;;5049688;28;20265;-70
2022/08/21 11:58:37;;;;;;;4.95;2.60;;;28.70;99.00;;;;;;5050335;28;20199;-68
2022/08/21 12:01:09;;;;;;;5.35;2.17;;;29.00;98.80;;;;;;5062153;28;20209;-69
2022/08/21 12:03:41;;;;;;;5.07;2.72;;;29.20;99.00;;;;;;5051904;28;20190;-68
2022/08/21 12:06:14;;;;;;;4.78;2.30;;;29.50;98.10;;;;;;5049636;28;20589;-69
2022/08/21 12:09:02;;;;;;;5.22;2.45;;;29.50;97.50;;;;;;5050178;28;20198;-69
2022/08/21 12:11:29;;;;;;;9.20;3.80;;;29.70;97.90;;;;;;5053676;28;20653;-71
2022/08/21 12:13:59;;;;;;;4.93;2.90;;;29.50;97.30;;;;;;5050343;28;20199;-69
2022/08/21 12:16:46;;;;;;;5.18;2.45;;;29.50;97.40;;;;;;5050173;28;20226;-69
2022/08/21 12:19:19;;;;;;;5.70;2.70;;;29.70;97.20;;;;;;5049964;28;20666;-70
2022/08/21 12:21:54;;;;;;;6.22;2.80;;;29.90;97.30;;;;;;5049750;28;20595;-70
2022/08/21 12:24:35;;;;;;;3.70;2.47;;;29.90;96.80;;;;;;5049860;28;20202;-70
2022/08/21 12:27:20;;;;;;;3.80;2.45;;;30.00;97.00;;;;;;5052226;28;20215;-69
2022/08/21 12:29:55;;;;;;;3.53;2.17;;;30.00;97.40;;;;;;5056738;28;20229;-67
2022/08/21 12:32:42;;;;;;;5.40;2.55;;;30.00;96.60;;;;;;5050508;28;20198;-69
2022/08/21 12:35:12;;;;;;;5.13;2.75;;;30.10;97.10;;;;;;5049826;28;20206;-70
2022/08/21 12:38:04;;;;;;;6.63;2.53;;;30.10;97.10;;;;;;5049476;28;20204;-69
2022/08/21 12:40:38;;;;;;;3.58;2.38;;;30.20;96.70;;;;;;5049483;28;20203;-70
2022/08/21 12:43:15;;;;;;;3.88;2.30;;;30.40;96.30;;;;;;5049645;28;20264;-70
2022/08/21 12:45:45;;;;;;;6.07;2.70;;;30.20;95.90;;;;;;5049683;28;20219;-69
2022/08/21 12:48:21;;;;;;;3.70;2.30;;;30.00;96.00;;;;;;5049924;28;20190;-69
2022/08/21 12:50:56;;;;;;;5.20;2.35;;;30.10;96.00;;;;;;5052822;28;20290;-70
2022/08/21 12:53:35;;;;;;;7.95;3.30;;;30.00;96.10;;;;;;5053657;28;20302;-69
2022/08/21 12:56:04;;;;;;;6.68;2.65;;;29.80;95.80;;;;;;5040211;28;20233;-69
2022/08/21 12:58:31;;;;;;;5.05;2.10;;;29.90;96.10;;;;;;5053721;28;20245;-69
2022/08/21 13:01:04;;;;;;;5.53;2.72;;;30.20;95.70;;;;;;5053376;28;20272;-68
2022/08/21 13:03:35;;;;;;;4.45;2.35;;;30.50;95.50;;;;;;5037541;28;20661;-68
2022/08/21 13:06:06;;;;;;;6.18;2.72;;;30.80;95.70;;;;;;5063300;28;20271;-68
2022/08/21 13:08:36;;;;;;;5.45;2.45;;;30.70;95.30;;;;;;5073278;28;20219;-68
2022/08/21 13:11:07;;;;;;;4.28;2.38;;;30.90;95.50;;;;;;5053571;28;20251;-68